createdAt,value
2022-08-28T00:00:38.120Z,164.40
2022-08-28T00:03:06.559Z,165.53
2022-08-28T00:05:36.051Z,165.43
2022-08-28T00:08:05.450Z,164.33
2022-08-28T00:10:33.617Z,164.53
2022-08-28T00:13:01.650Z,165.40
2022-08-28T00:15:33.301Z,165.53
2022-08-28T00:18:03.493Z,164.83
2022-08-28T00:20:32.615Z,165.10
2022-08-28T00:23:01.209Z,165.13
2022-08-28T00:25:31.615Z,164.67
2022-08-28T00:28:00.453Z,163.80
2022-08-28T00:30:36.251Z,163.90
2022-08-28T00:33:07.237Z,164.23
2022-08-28T00:35:35.203Z,163.97
2022-08-28T00:38:05.939Z,164.87
2022-08-28T00:40:36.406Z,164.40
2022-08-28T00:43:05.738Z,164.63
2022-08-28T00:45:39.525Z,163.57
2022-08-28T00:48:08.476Z,163.87
2022-08-28T00:50:51.205Z,163.17
2022-08-28T00:53:20.588Z,163.80
2022-08-28T00:55:52.682Z,164.63
2022-08-28T00:58:21.076Z,164.53
2022-08-28T01:00:49.817Z,164.67
2022-08-28T01:03:17.956Z,163.70
2022-08-28T01:05:47.908Z,163.93
2022-08-28T01:08:16.097Z,163.83
2022-08-28T01:10:51.046Z,163.30
2022-08-28T01:13:20.863Z,163.23
2022-08-28T01:15:49.280Z,164.10
2022-08-28T01:18:18.371Z,164.03
2022-08-28T01:20:52.305Z,163.70
2022-08-28T01:23:29.968Z,163.20
2022-08-28T01:26:00.173Z,163.47
2022-08-28T01:28:29.333Z,164.23
2022-08-28T01:30:59.183Z,163.43
2022-08-28T01:33:28.052Z,163.40
2022-08-28T01:35:56.270Z,163.43
2022-08-28T01:38:26.945Z,163.20
2022-08-28T01:40:57.141Z,163.63
2022-08-28T01:43:28.622Z,162.50
2022-08-28T01:46:00.020Z,162.83
2022-08-28T01:48:28.533Z,162.80
2022-08-28T01:50:56.962Z,163.23
2022-08-28T01:53:32.680Z,162.40
2022-08-28T01:56:04.529Z,162.67
2022-08-28T01:58:38.076Z,162.10
2022-08-28T02:01:09.532Z,162.37
2022-08-28T02:03:37.545Z,163.10
2022-08-28T02:06:05.768Z,162.47
2022-08-28T02:08:33.551Z,162.73
2022-08-28T02:11:01.385Z,162.17
2022-08-28T02:13:29.261Z,162.10
2022-08-28T02:15:59.683Z,161.80
2022-08-28T02:18:27.663Z,161.90
2022-08-28T02:20:55.512Z,161.30
2022-08-28T02:23:23.312Z,162.10
2022-08-28T02:25:51.260Z,162.60
2022-08-28T02:28:19.313Z,161.87
2022-08-28T02:30:47.164Z,162.00
2022-08-28T02:33:17.039Z,162.43
2022-08-28T02:35:44.988Z,162.00
2022-08-28T02:38:14.083Z,162.13
2022-08-28T02:40:42.152Z,161.03
2022-08-28T02:43:10.266Z,161.03
2022-08-28T02:45:38.306Z,161.47
2022-08-28T02:48:12.052Z,161.47
2022-08-28T02:50:47.060Z,161.53
2022-08-28T02:53:15.025Z,161.50
2022-08-28T02:55:42.849Z,162.33
2022-08-28T02:58:10.751Z,161.70
2022-08-28T03:00:38.603Z,161.73
2022-08-28T03:03:06.481Z,161.63
2022-08-28T03:05:34.313Z,161.33
2022-08-28T03:08:03.826Z,160.77
2022-08-28T03:10:31.992Z,161.13
2022-08-28T03:12:59.828Z,161.10
2022-08-28T03:15:27.670Z,161.63
2022-08-28T03:17:55.441Z,161.40
2022-08-28T03:20:23.783Z,161.17
2022-08-28T03:23:09.253Z,161.33
2022-08-28T03:25:38.463Z,160.67
2022-08-28T03:28:06.310Z,160.43
2022-08-28T03:30:34.202Z,161.23
2022-08-28T03:33:02.109Z,160.87
2022-08-28T03:35:30.222Z,161.20
2022-08-28T03:37:58.019Z,160.43
2022-08-28T03:40:25.842Z,160.80
2022-08-28T03:42:55.270Z,160.60
2022-08-28T03:45:23.607Z,160.83
2022-08-28T03:47:53.485Z,160.73
2022-08-28T03:50:21.388Z,159.90
2022-08-28T03:52:49.380Z,160.60
2022-08-28T03:55:18.760Z,160.60
2022-08-28T03:57:46.747Z,160.50
2022-08-28T04:00:16.885Z,159.57
2022-08-28T04:02:46.063Z,160.03
2022-08-28T04:05:14.920Z,160.23
2022-08-28T04:07:42.725Z,160.57
2022-08-28T04:10:12.067Z,159.30
2022-08-28T04:12:40.118Z,159.93
2022-08-28T04:15:09.291Z,159.97
2022-08-28T04:17:40.997Z,160.73
2022-08-28T04:20:10.821Z,159.83
2022-08-28T04:22:38.690Z,159.73
2022-08-28T04:25:08.263Z,159.80
2022-08-28T04:27:36.326Z,160.10
2022-08-28T04:30:04.865Z,159.53
2022-08-28T04:32:35.493Z,159.83
2022-08-28T04:35:06.524Z,159.37
2022-08-28T04:37:34.709Z,160.00
2022-08-28T04:40:02.752Z,159.40
2022-08-28T04:42:30.566Z,159.80
2022-08-28T04:44:59.902Z,159.77
2022-08-28T04:47:28.854Z,159.73
2022-08-28T04:49:56.783Z,159.23
2022-08-28T04:52:26.212Z,159.60
2022-08-28T04:54:54.105Z,159.53
2022-08-28T04:57:21.893Z,159.63
2022-08-28T04:59:49.684Z,159.63
2022-08-28T05:02:17.613Z,159.67
2022-08-28T05:04:47.224Z,159.93
2022-08-28T05:07:15.323Z,159.33
2022-08-28T05:09:44.462Z,159.77
2022-08-28T05:12:17.089Z,160.40
2022-08-28T05:14:45.650Z,159.53
2022-08-28T05:17:14.876Z,159.10
2022-08-28T05:19:43.612Z,159.77
2022-08-28T05:22:11.734Z,159.30
2022-08-28T05:24:40.300Z,159.47
2022-08-28T05:27:09.655Z,159.53
2022-08-28T05:29:37.597Z,159.13
2022-08-28T05:32:06.380Z,158.53
2022-08-28T05:34:34.376Z,158.90
2022-08-28T05:37:02.203Z,158.80
2022-08-28T05:39:30.094Z,159.53
2022-08-28T05:41:57.943Z,158.23
2022-08-28T05:44:27.163Z,159.00
2022-08-28T05:46:55.813Z,158.93
2022-08-28T05:49:23.738Z,160.07
2022-08-28T05:51:52.313Z,159.90
2022-08-28T05:54:20.341Z,159.23
2022-08-28T05:56:48.356Z,159.37
2022-08-28T05:59:16.772Z,159.47
2022-08-28T06:01:47.888Z,159.83
2022-08-28T06:04:18.138Z,159.90
2022-08-28T06:06:46.709Z,159.90
2022-08-28T06:09:16.037Z,158.97
2022-08-28T06:11:46.058Z,159.60
2022-08-28T06:14:16.555Z,159.50
2022-08-28T06:16:49.389Z,159.57
2022-08-28T06:19:17.877Z,159.57
2022-08-28T06:21:46.768Z,159.57
2022-08-28T06:24:15.018Z,159.50
2022-08-28T06:26:42.887Z,159.70
2022-08-28T06:29:13.021Z,159.53
2022-08-28T06:31:41.450Z,159.87
2022-08-28T06:34:10.833Z,160.00
2022-08-28T06:36:42.352Z,159.30
2022-08-28T06:39:12.460Z,159.33
2022-08-28T06:41:43.147Z,159.60
2022-08-28T06:44:12.395Z,159.43
2022-08-28T06:46:40.954Z,160.70
2022-08-28T06:49:10.271Z,160.70
2022-08-28T06:51:38.315Z,161.73
2022-08-28T06:54:06.477Z,161.10
2022-08-28T06:56:34.773Z,161.17
2022-08-28T06:59:02.854Z,161.23
2022-08-28T07:01:33.926Z,161.80
2022-08-28T07:04:03.893Z,160.73
2022-08-28T07:06:35.940Z,160.60
2022-08-28T07:09:05.164Z,160.63
2022-08-28T07:11:34.839Z,160.30
2022-08-28T07:14:03.164Z,161.57
2022-08-28T07:16:32.762Z,160.87
2022-08-28T07:19:03.612Z,163.30
2022-08-28T07:21:33.082Z,162.30
2022-08-28T07:24:06.786Z,163.23
2022-08-28T07:26:35.652Z,161.50
2022-08-28T07:29:10.138Z,161.63
2022-08-28T07:31:40.812Z,161.77
2022-08-28T07:34:09.396Z,162.50
2022-08-28T07:36:39.468Z,161.77
2022-08-28T07:39:08.292Z,162.37
2022-08-28T07:41:39.342Z,162.13
2022-08-28T07:44:25.317Z,162.53
2022-08-28T07:46:54.662Z,162.37
2022-08-28T07:49:23.428Z,162.30
2022-08-28T07:51:53.904Z,162.77
2022-08-28T07:54:23.017Z,163.93
2022-08-28T07:56:51.623Z,165.50
2022-08-28T07:59:20.459Z,165.10
2022-08-28T08:01:51.723Z,165.47
2022-08-28T08:04:21.679Z,164.77
2022-08-28T08:06:53.333Z,165.10
2022-08-28T08:09:27.153Z,164.73
2022-08-28T08:11:56.493Z,164.87
2022-08-28T08:14:25.296Z,165.70
2022-08-28T08:16:53.403Z,164.43
2022-08-28T08:19:21.410Z,165.27
2022-08-28T08:21:53.097Z,164.93
2022-08-28T08:24:25.661Z,165.37
2022-08-28T08:26:59.456Z,165.00
2022-08-28T08:29:31.153Z,163.77
2022-08-28T08:32:04.828Z,164.23
2022-08-28T08:38:33.480Z,164.10
2022-08-28T08:41:02.819Z,164.77
2022-08-28T08:43:44.028Z,164.27
2022-08-28T08:46:11.968Z,165.20
2022-08-28T08:48:43.602Z,165.37
2022-08-28T08:51:20.472Z,164.80
2022-08-28T08:53:55.554Z,163.97
2022-08-28T08:56:23.881Z,165.23
2022-08-28T08:59:05.280Z,164.47
2022-08-28T09:01:40.061Z,164.40
2022-08-28T09:04:22.546Z,163.73
2022-08-28T09:06:52.910Z,164.60
2022-08-28T09:09:28.889Z,163.43
2022-08-28T09:11:59.557Z,164.03
2022-08-28T09:14:38.586Z,164.07
2022-08-28T09:17:07.873Z,162.53
2022-08-28T09:19:36.330Z,164.93
2022-08-28T09:22:04.358Z,163.50
2022-08-28T09:24:36.455Z,163.80
2022-08-28T09:27:13.715Z,163.33
2022-08-28T09:29:52.124Z,164.00
2022-08-28T09:32:26.569Z,163.93
2022-08-28T09:35:05.930Z,164.47
2022-08-28T09:37:35.524Z,162.47
2022-08-28T09:40:23.529Z,163.67
2022-08-28T09:43:19.526Z,164.23
2022-08-28T09:45:55.930Z,164.50
2022-08-28T09:48:25.890Z,163.87
2022-08-28T09:50:59.104Z,163.73
2022-08-28T09:53:30.600Z,163.50
2022-08-28T09:56:11.488Z,164.33
2022-08-28T09:58:43.354Z,163.27
2022-08-28T10:01:35.636Z,163.83
2022-08-28T10:04:15.853Z,164.00
2022-08-28T10:06:51.346Z,162.97
2022-08-28T10:09:28.694Z,163.50
2022-08-28T10:12:05.706Z,163.00
2022-08-28T10:14:45.520Z,163.00
2022-08-28T10:17:26.201Z,163.43
2022-08-28T10:20:01.542Z,162.63
2022-08-28T10:22:40.804Z,162.93
2022-08-28T10:25:19.277Z,164.07
2022-08-28T10:28:01.121Z,163.80
2022-08-28T10:30:31.836Z,164.00
2022-08-28T10:33:16.629Z,162.97
2022-08-28T10:35:53.193Z,163.60
2022-08-28T10:38:28.268Z,163.77
2022-08-28T10:41:02.645Z,163.70
2022-08-28T10:43:34.961Z,164.10
2022-08-28T10:46:06.697Z,163.20
2022-08-28T10:48:43.542Z,163.93
2022-08-28T10:51:17.449Z,163.83
2022-08-28T10:53:48.493Z,164.40
2022-08-28T10:56:19.489Z,164.53
2022-08-28T10:58:50.365Z,164.23
2022-08-28T11:01:28.185Z,163.70
2022-08-28T11:04:00.827Z,163.77
2022-08-28T11:06:34.930Z,163.07
2022-08-28T11:09:22.345Z,164.03
2022-08-28T11:11:52.053Z,164.07
2022-08-28T11:14:30.739Z,163.57
2022-08-28T11:17:02.624Z,164.27
2022-08-28T11:19:53.285Z,163.43
2022-08-28T11:22:24.274Z,164.77
2022-08-28T11:25:04.448Z,164.47
2022-08-28T11:27:36.579Z,164.00
2022-08-28T11:30:32.566Z,164.73
2022-08-28T11:33:07.176Z,163.30
2022-08-28T11:35:51.683Z,164.10
2022-08-28T11:39:11.827Z,164.37
2022-08-28T11:41:41.363Z,163.17
2022-08-28T11:44:41.909Z,163.60
2022-08-28T11:47:36.951Z,163.50
2022-08-28T11:50:14.036Z,163.80
2022-08-28T11:53:17.664Z,162.87
2022-08-28T11:56:05.755Z,163.60
2022-08-28T11:58:43.674Z,163.47
2022-08-28T12:01:14.129Z,163.83
2022-08-28T12:03:44.578Z,162.87
2022-08-28T12:06:13.232Z,163.43
2022-08-28T12:09:11.458Z,163.27
2022-08-28T12:11:54.997Z,163.50
2022-08-28T12:14:58.240Z,163.37
2022-08-28T12:17:31.461Z,163.47
2022-08-28T12:20:08.948Z,163.43
2022-08-28T12:22:46.140Z,162.90
2022-08-28T12:25:25.210Z,162.57
2022-08-28T12:27:56.009Z,162.80
2022-08-28T12:30:34.043Z,162.73
2022-08-28T12:33:12.140Z,162.47
2022-08-28T12:35:40.278Z,163.13
2022-08-28T12:38:09.273Z,162.90
2022-08-28T12:40:50.456Z,163.13
2022-08-28T12:43:35.625Z,161.93
2022-08-28T12:46:19.285Z,162.93
2022-08-28T12:48:52.828Z,162.87
2022-08-28T12:51:24.233Z,161.87
2022-08-28T12:53:55.101Z,163.00
2022-08-28T12:56:25.317Z,162.37
2022-08-28T12:58:54.625Z,162.63
2022-08-28T13:01:29.174Z,162.90
2022-08-28T13:04:00.400Z,162.63
2022-08-28T13:06:30.364Z,163.33
2022-08-28T13:09:02.423Z,163.37
2022-08-28T13:11:34.946Z,162.50
2022-08-28T13:14:05.052Z,163.00
2022-08-28T13:16:39.230Z,162.17
2022-08-28T13:19:25.862Z,163.53
2022-08-28T13:22:00.192Z,162.80
2022-08-28T13:24:38.400Z,163.07
2022-08-28T13:27:24.105Z,164.00
2022-08-28T13:30:00.608Z,163.43
2022-08-28T13:32:32.166Z,163.83
2022-08-28T13:35:30.480Z,162.53
2022-08-28T13:38:06.958Z,162.20
2022-08-28T13:40:59.076Z,161.87
2022-08-28T13:43:33.289Z,162.33
2022-08-28T13:46:02.536Z,162.97
2022-08-28T13:48:37.654Z,162.53
2022-08-28T13:51:12.031Z,163.00
2022-08-28T13:53:49.710Z,162.37
2022-08-28T13:56:22.349Z,162.23
2022-08-28T13:58:57.424Z,162.23
2022-08-28T14:01:44.565Z,163.17
2022-08-28T14:04:14.605Z,162.87
2022-08-28T14:06:44.247Z,163.50
2022-08-28T14:09:15.160Z,162.23
2022-08-28T14:11:51.844Z,163.40
2022-08-28T14:14:21.140Z,162.93
2022-08-28T14:16:53.613Z,163.10
2022-08-28T14:19:21.681Z,162.30
2022-08-28T14:21:49.669Z,163.07
2022-08-28T14:24:18.307Z,162.63
2022-08-28T14:26:47.296Z,162.23
2022-08-28T14:29:18.864Z,162.80
2022-08-28T14:31:47.373Z,162.17
2022-08-28T14:34:19.237Z,162.97
2022-08-28T14:36:50.721Z,163.00
2022-08-28T14:39:26.461Z,162.63
2022-08-28T14:41:55.659Z,162.37
2022-08-28T14:44:29.435Z,162.60
2022-08-28T14:47:02.297Z,162.67
2022-08-28T14:49:33.570Z,162.00
2022-08-28T14:52:09.509Z,162.47
2022-08-28T14:54:41.647Z,162.57
2022-08-28T14:57:12.400Z,163.00
2022-08-28T14:59:42.316Z,162.60
2022-08-28T15:02:12.254Z,162.23
2022-08-28T15:04:45.832Z,161.43
2022-08-28T15:07:17.888Z,161.57
2022-08-28T15:09:49.748Z,163.27
2022-08-28T15:12:18.041Z,162.23
2022-08-28T15:14:54.585Z,162.67
2022-08-28T15:17:34.381Z,161.87
2022-08-28T15:20:05.571Z,162.80
2022-08-28T15:22:33.368Z,169.60
2022-08-28T15:25:01.208Z,169.87
2022-08-28T15:27:29.053Z,170.23
2022-08-28T15:29:56.910Z,171.13
2022-08-28T15:32:24.770Z,170.93
2022-08-28T15:34:53.317Z,170.47
2022-08-28T15:37:22.528Z,170.53
2022-08-28T15:40:08.059Z,170.47
2022-08-28T15:42:35.873Z,170.57
2022-08-28T15:45:03.816Z,171.47
2022-08-28T15:47:31.683Z,171.53
2022-08-28T15:49:59.514Z,172.43
2022-08-28T15:52:28.653Z,174.10
2022-08-28T15:54:56.408Z,173.13
2022-08-28T15:57:24.278Z,172.40
2022-08-28T15:59:52.132Z,172.37
2022-08-28T16:02:22.530Z,172.07
2022-08-28T16:04:50.671Z,169.97
2022-08-28T16:07:19.419Z,168.63
2022-08-28T16:09:48.667Z,170.13
2022-08-28T16:12:16.491Z,168.90
2022-08-28T16:14:44.315Z,169.60
2022-08-28T16:17:12.711Z,170.27
2022-08-28T16:19:41.136Z,169.60
2022-08-28T16:22:09.320Z,170.30
2022-08-28T16:24:37.767Z,169.10
2022-08-28T16:27:09.655Z,168.40
2022-08-28T16:29:39.104Z,168.90
2022-08-28T16:32:07.723Z,169.57
2022-08-28T16:34:37.034Z,169.60
2022-08-28T16:37:05.605Z,169.30
2022-08-28T16:39:35.700Z,168.93
2022-08-28T16:42:03.587Z,168.77
2022-08-28T16:44:32.933Z,169.20
2022-08-28T16:47:00.781Z,169.23
2022-08-28T16:49:28.594Z,167.70
2022-08-28T16:51:56.404Z,169.13
2022-08-28T16:54:24.257Z,169.30
2022-08-28T16:56:52.120Z,168.67
2022-08-28T16:59:23.294Z,169.07
2022-08-28T17:01:53.859Z,169.10
2022-08-28T17:04:22.987Z,168.77
2022-08-28T17:06:51.069Z,169.57
2022-08-28T17:09:20.963Z,168.23
2022-08-28T17:11:51.688Z,169.23
2022-08-28T17:14:20.470Z,170.03
2022-08-28T17:16:48.795Z,168.57
2022-08-28T17:19:18.633Z,169.47
2022-08-28T17:22:04.119Z,169.17
2022-08-28T17:24:32.010Z,169.67
2022-08-28T17:27:05.232Z,167.97
2022-08-28T17:29:33.736Z,168.70
2022-08-28T17:32:01.875Z,169.13
2022-08-28T17:34:31.075Z,168.83
2022-08-28T17:36:58.990Z,168.33
2022-08-28T17:39:27.014Z,168.67
2022-08-28T17:41:54.834Z,169.10
2022-08-28T17:44:23.120Z,168.67
2022-08-28T17:46:52.480Z,168.90
2022-08-28T17:49:22.238Z,169.00
2022-08-28T17:51:51.967Z,169.03
2022-08-28T17:54:22.550Z,169.50
2022-08-28T17:56:51.238Z,168.37
2022-08-28T17:59:20.750Z,169.03
2022-08-28T18:01:49.784Z,169.53
2022-08-28T18:04:24.155Z,168.13
2022-08-28T18:06:54.699Z,169.27
2022-08-28T18:09:23.297Z,168.77
2022-08-28T18:11:51.415Z,168.60
2022-08-28T18:14:19.296Z,169.13
2022-08-28T18:16:47.307Z,168.50
2022-08-28T18:19:16.182Z,168.50
2022-08-28T18:21:44.051Z,168.73
2022-08-28T18:24:13.938Z,169.10
2022-08-28T18:26:43.304Z,168.73
2022-08-28T18:29:11.442Z,168.70
2022-08-28T18:31:39.316Z,168.27
2022-08-28T18:34:08.502Z,169.23
2022-08-28T18:36:39.429Z,168.80
2022-08-28T18:39:07.466Z,168.53
2022-08-28T18:41:44.054Z,169.07
2022-08-28T18:44:13.885Z,168.30
2022-08-28T18:46:42.534Z,169.43
2022-08-28T18:49:10.898Z,168.60
2022-08-28T18:51:38.814Z,168.93
2022-08-28T18:54:06.676Z,168.87
2022-08-28T18:56:37.649Z,168.60
2022-08-28T18:59:06.377Z,168.47
2022-08-28T19:01:34.459Z,169.00
2022-08-28T19:04:02.492Z,168.13
2022-08-28T19:06:30.404Z,169.57
2022-08-28T19:08:58.308Z,168.53
2022-08-28T19:11:26.436Z,168.70
2022-08-28T19:13:55.554Z,168.63
2022-08-28T19:16:23.494Z,168.10
2022-08-28T19:18:53.482Z,169.07
2022-08-28T19:21:21.617Z,168.63
2022-08-28T19:23:56.059Z,169.30
2022-08-28T19:26:24.436Z,169.33
2022-08-28T19:28:52.549Z,169.40
2022-08-28T19:31:22.418Z,168.57
2022-08-28T19:33:50.570Z,167.40
2022-08-28T19:36:19.251Z,168.30
2022-08-28T19:38:47.217Z,166.93
2022-08-28T19:41:15.138Z,167.67
2022-08-28T19:43:44.654Z,168.33
2022-08-28T19:46:19.557Z,168.10
2022-08-28T19:48:50.525Z,168.33
2022-08-28T19:51:23.339Z,168.20
2022-08-28T19:53:57.145Z,168.40
2022-08-28T19:56:27.682Z,167.73
2022-08-28T19:58:57.337Z,168.73
2022-08-28T20:01:25.261Z,168.50
2022-08-28T20:03:54.410Z,167.47
2022-08-28T20:06:22.180Z,168.17
2022-08-28T20:08:50.666Z,167.87
2022-08-28T20:11:24.615Z,168.43
2022-08-28T20:13:52.969Z,167.67
2022-08-28T20:16:21.353Z,168.33
2022-08-28T20:18:50.198Z,168.87
2022-08-28T20:21:28.811Z,168.10
2022-08-28T20:24:06.293Z,167.37
2022-08-28T20:26:34.122Z,168.27
2022-08-28T20:29:01.981Z,168.47
2022-08-28T20:31:29.854Z,168.37
2022-08-28T20:33:57.778Z,168.43
2022-08-28T20:36:27.123Z,168.87
2022-08-28T20:38:55.295Z,167.57
2022-08-28T20:41:23.651Z,169.37
2022-08-28T20:43:51.560Z,168.60
2022-08-28T20:46:19.697Z,168.33
2022-08-28T20:48:47.653Z,167.90
2022-08-28T20:51:15.486Z,167.30
2022-08-28T20:53:45.432Z,167.80
2022-08-28T20:56:13.326Z,168.83
2022-08-28T20:58:41.175Z,168.83
2022-08-28T21:01:09.040Z,168.07
2022-08-28T21:03:36.886Z,167.97
2022-08-28T21:06:04.952Z,168.40
2022-08-28T21:08:32.806Z,167.53
2022-08-28T21:11:01.900Z,166.90
2022-08-28T21:13:29.749Z,167.67
2022-08-28T21:15:57.593Z,167.70
2022-08-28T21:18:25.504Z,168.57
2022-08-28T21:20:55.612Z,167.57
2022-08-28T21:23:24.380Z,167.77
2022-08-28T21:25:52.199Z,168.50
2022-08-28T21:28:21.388Z,168.17
2022-08-28T21:30:49.194Z,168.37
2022-08-28T21:33:17.050Z,168.37
2022-08-28T21:35:46.230Z,168.47
2022-08-28T21:38:14.189Z,167.93
2022-08-28T21:40:42.433Z,168.27
2022-08-28T21:43:10.304Z,166.70
2022-08-28T21:45:39.552Z,168.47
2022-08-28T21:48:07.961Z,168.30
2022-08-28T21:50:35.798Z,167.57
2022-08-28T21:53:03.681Z,168.93
2022-08-28T21:55:31.508Z,167.90
2022-08-28T21:57:59.301Z,167.53
2022-08-28T22:00:27.173Z,167.73
2022-08-28T22:02:56.400Z,168.00
2022-08-28T22:05:24.412Z,168.03
2022-08-28T22:07:52.322Z,168.63
2022-08-28T22:10:20.111Z,168.37
2022-08-28T22:12:47.887Z,167.37
2022-08-28T22:15:15.822Z,168.03
2022-08-28T22:17:43.681Z,168.23
2022-08-28T22:20:13.098Z,168.10
2022-08-28T22:22:58.461Z,167.63
2022-08-28T22:25:26.447Z,168.57
2022-08-28T22:27:54.293Z,167.67
2022-08-28T22:30:22.655Z,168.47
2022-08-28T22:32:52.009Z,167.97
2022-08-28T22:35:21.349Z,168.00
2022-08-28T22:37:49.506Z,168.37
2022-08-28T22:40:17.394Z,167.60
2022-08-28T22:42:45.278Z,167.93
2022-08-28T22:45:13.500Z,168.70
2022-08-28T22:47:41.356Z,168.63
2022-08-28T22:50:09.571Z,168.37
2022-08-28T22:52:39.736Z,168.63
2022-08-28T22:55:10.414Z,168.63
2022-08-28T22:57:40.207Z,168.57
2022-08-28T23:00:11.214Z,168.50
2022-08-28T23:02:39.765Z,167.70
2022-08-28T23:05:08.877Z,168.40
2022-08-28T23:07:38.281Z,168.43
2022-08-28T23:10:06.950Z,167.73
2022-08-28T23:12:35.395Z,168.40
2022-08-28T23:15:06.097Z,167.80
2022-08-28T23:17:33.933Z,168.50
2022-08-28T23:20:01.768Z,167.53
2022-08-28T23:22:29.609Z,167.53
2022-08-28T23:24:58.721Z,167.53
2022-08-28T23:27:36.315Z,167.37
2022-08-28T23:30:07.962Z,167.87
2022-08-28T23:32:35.870Z,168.20
2022-08-28T23:35:07.110Z,168.13
2022-08-28T23:37:36.237Z,167.87
2022-08-28T23:40:08.104Z,168.13
2022-08-28T23:42:36.106Z,167.43
2022-08-28T23:45:05.317Z,167.53
2022-08-28T23:47:33.373Z,167.53
2022-08-28T23:50:01.259Z,168.00
2022-08-28T23:52:29.058Z,167.37
2022-08-28T23:54:56.872Z,166.53
2022-08-28T23:57:26.092Z,166.67
2022-08-28T23:59:54.090Z,168.03
